sensor_id;sensor_type;location;lat;lon;timestamp;P1;durP1;ratioP1;P2;durP2;ratioP2
56271;SDS011;42177;48.914;18.160;2022-08-21T00:03:55;16.9;;;9.8;;
56271;SDS011;42177;48.914;18.160;2022-08-21T00:08:55;14.8;;;10.4;;
56271;SDS011;42177;48.914;18.160;2022-08-21T00:13:55;14.8;;;10.4;;
56271;SDS011;42177;48.914;18.160;2022-08-21T00:18:55;15.3;;;10.2;;
56271;SDS011;42177;48.914;18.160;2022-08-21T00:23:55;15.3;;;10.2;;
56271;SDS011;42177;48.914;18.160;2022-08-21T00:28:55;16.4;;;10.8;;
56271;SDS011;42177;48.914;18.160;2022-08-21T00:33:55;16.4;;;10.8;;
56271;SDS011;42177;48.914;18.160;2022-08-21T00:38:55;18.1;;;11.4;;
56271;SDS011;42177;48.914;18.160;2022-08-21T00:43:55;18.1;;;11.4;;
56271;SDS011;42177;48.914;18.160;2022-08-21T00:48:55;13.9;;;10.3;;
56271;SDS011;42177;48.914;18.160;2022-08-21T00:53:56;13.9;;;10.3;;
56271;SDS011;42177;48.914;18.160;2022-08-21T00:58:56;19.8;;;12.8;;
56271;SDS011;42177;48.914;18.160;2022-08-21T01:03:55;19.8;;;12.8;;
56271;SDS011;42177;48.914;18.160;2022-08-21T01:08:55;20.2;;;12.8;;
56271;SDS011;42177;48.914;18.160;2022-08-21T01:13:55;20.2;;;12.8;;
56271;SDS011;42177;48.914;18.160;2022-08-21T01:18:55;19;;;12.7;;
56271;SDS011;42177;48.914;18.160;2022-08-21T01:23:56;19;;;12.7;;
56271;SDS011;42177;48.914;18.160;2022-08-21T01:28:57;18.2;;;11.7;;
56271;SDS011;42177;48.914;18.160;2022-08-21T01:33:55;18.2;;;11.7;;
56271;SDS011;42177;48.914;18.160;2022-08-21T01:38:55;17.1;;;10.8;;
56271;SDS011;42177;48.914;18.160;2022-08-21T01:43:55;17.1;;;10.8;;
56271;SDS011;42177;48.914;18.160;2022-08-21T01:48:55;14.9;;;9.8;;
56271;SDS011;42177;48.914;18.160;2022-08-21T01:53:55;14.9;;;9.8;;
56271;SDS011;42177;48.914;18.160;2022-08-21T01:58:55;14.8;;;10.6;;
56271;SDS011;42177;48.914;18.160;2022-08-21T02:03:55;14.8;;;10.6;;
56271;SDS011;42177;48.914;18.160;2022-08-21T02:08:55;19.8;;;13.1;;
56271;SDS011;42177;48.914;18.160;2022-08-21T02:13:55;19.8;;;13.1;;
56271;SDS011;42177;48.914;18.160;2022-08-21T02:18:55;18.2;;;12.3;;
56271;SDS011;42177;48.914;18.160;2022-08-21T02:23:55;18.2;;;12.3;;
56271;SDS011;42177;48.914;18.160;2022-08-21T02:28:55;18.8;;;11.8;;
56271;SDS011;42177;48.914;18.160;2022-08-21T02:33:55;18.8;;;11.8;;
56271;SDS011;42177;48.914;18.160;2022-08-21T02:38:55;16.1;;;12.2;;
56271;SDS011;42177;48.914;18.160;2022-08-21T02:43:55;16.1;;;12.2;;
56271;SDS011;42177;48.914;18.160;2022-08-21T02:48:55;15.4;;;11.4;;
56271;SDS011;42177;48.914;18.160;2022-08-21T02:53:55;15.4;;;11.4;;
56271;SDS011;42177;48.914;18.160;2022-08-21T02:58:55;19.7;;;13.3;;
56271;SDS011;42177;48.914;18.160;2022-08-21T03:03:55;19.7;;;13.3;;
56271;SDS011;42177;48.914;18.160;2022-08-21T03:08:55;26.5;;;14.9;;
56271;SDS011;42177;48.914;18.160;2022-08-21T03:13:55;26.5;;;14.9;;
56271;SDS011;42177;48.914;18.160;2022-08-21T03:18:55;18;;;12.7;;
56271;SDS011;42177;48.914;18.160;2022-08-21T03:23:55;18;;;12.7;;
56271;SDS011;42177;48.914;18.160;2022-08-21T03:28:55;21;;;13.2;;
56271;SDS011;42177;48.914;18.160;2022-08-21T03:33:55;21;;;13.2;;
56271;SDS011;42177;48.914;18.160;2022-08-21T03:38:55;15.4;;;11;;
56271;SDS011;42177;48.914;18.160;2022-08-21T03:43:55;15.4;;;11;;
56271;SDS011;42177;48.914;18.160;2022-08-21T03:48:55;18.6;;;13.4;;
56271;SDS011;42177;48.914;18.160;2022-08-21T03:53:55;18.6;;;13.4;;
56271;SDS011;42177;48.914;18.160;2022-08-21T03:58:55;19.7;;;14.1;;
56271;SDS011;42177;48.914;18.160;2022-08-21T04:03:55;19.7;;;14.1;;
56271;SDS011;42177;48.914;18.160;2022-08-21T04:08:55;20.1;;;13.1;;
56271;SDS011;42177;48.914;18.160;2022-08-21T04:13:55;20.1;;;13.1;;
56271;SDS011;42177;48.914;18.160;2022-08-21T04:18:55;17.1;;;14.4;;
56271;SDS011;42177;48.914;18.160;2022-08-21T04:23:55;17.1;;;14.4;;
56271;SDS011;42177;48.914;18.160;2022-08-21T04:28:55;15.4;;;13.2;;
56271;SDS011;42177;48.914;18.160;2022-08-21T04:33:55;15.4;;;13.2;;
56271;SDS011;42177;48.914;18.160;2022-08-21T04:38:55;10.4;;;8.1;;
56271;SDS011;42177;48.914;18.160;2022-08-21T04:43:55;10.4;;;8.1;;
56271;SDS011;42177;48.914;18.160;2022-08-21T04:48:55;4.7;;;4.2;;
56271;SDS011;42177;48.914;18.160;2022-08-21T04:53:56;4.7;;;4.2;;
56271;SDS011;42177;48.914;18.160;2022-08-21T04:58:56;5;;;3.1;;
56271;SDS011;42177;48.914;18.160;2022-08-21T05:03:56;5;;;3.1;;
56271;SDS011;42177;48.914;18.160;2022-08-21T05:08:55;4.1;;;2;;
56271;SDS011;42177;48.914;18.160;2022-08-21T05:13:55;4.1;;;2;;
56271;SDS011;42177;48.914;18.160;2022-08-21T05:18:55;2.3;;;1.8;;
56271;SDS011;42177;48.914;18.160;2022-08-21T05:23:55;2.3;;;1.8;;
56271;SDS011;42177;48.914;18.160;2022-08-21T05:28:55;2.5;;;1.2;;
56271;SDS011;42177;48.914;18.160;2022-08-21T05:33:55;2.5;;;1.2;;
56271;SDS011;42177;48.914;18.160;2022-08-21T05:38:55;0.9;;;0.8;;
56271;SDS011;42177;48.914;18.160;2022-08-21T05:43:55;0.9;;;0.8;;
56271;SDS011;42177;48.914;18.160;2022-08-21T05:48:55;2;;;0.8;;
56271;SDS011;42177;48.914;18.160;2022-08-21T05:53:55;2;;;0.8;;
56271;SDS011;42177;48.914;18.160;2022-08-21T05:58:55;3.2;;;0.8;;
56271;SDS011;42177;48.914;18.160;2022-08-21T06:03:55;3.2;;;0.8;;
56271;SDS011;42177;48.914;18.160;2022-08-21T06:08:55;1.9;;;1;;
56271;SDS011;42177;48.914;18.160;2022-08-21T06:13:56;1.9;;;1;;
56271;SDS011;42177;48.914;18.160;2022-08-21T06:18:55;1.8;;;0.8;;
56271;SDS011;42177;48.914;18.160;2022-08-21T06:23:55;1.8;;;0.8;;
56271;SDS011;42177;48.914;18.160;2022-08-21T06:28:55;1.2;;;0.6;;
56271;SDS011;42177;48.914;18.160;2022-08-21T06:33:55;1.2;;;0.6;;
56271;SDS011;42177;48.914;18.160;2022-08-21T06:38:55;0.7;;;0.6;;
56271;SDS011;42177;48.914;18.160;2022-08-21T06:43:55;0.7;;;0.6;;
56271;SDS011;42177;48.914;18.160;2022-08-21T06:48:55;0.7;;;0.7;;
56271;SDS011;42177;48.914;18.160;2022-08-21T06:53:55;0.7;;;0.7;;
56271;SDS011;42177;48.914;18.160;2022-08-21T06:58:55;0.7;;;0.7;;
56271;SDS011;42177;48.914;18.160;2022-08-21T07:03:55;0.7;;;0.7;;
56271;SDS011;42177;48.914;18.160;2022-08-21T07:08:55;7.3;;;2.5;;
56271;SDS011;42177;48.914;18.160;2022-08-21T07:13:55;7.3;;;2.5;;
56271;SDS011;42177;48.914;18.160;2022-08-21T07:18:56;0.5;;;0.5;;
56271;SDS011;42177;48.914;18.160;2022-08-21T07:23:55;0.5;;;0.5;;
56271;SDS011;42177;48.914;18.160;2022-08-21T07:28:55;2.1;;;0.6;;
56271;SDS011;42177;48.914;18.160;2022-08-21T07:33:55;2.1;;;0.6;;
56271;SDS011;42177;48.914;18.160;2022-08-21T07:38:55;1.2;;;0.5;;
56271;SDS011;42177;48.914;18.160;2022-08-21T07:43:55;1.2;;;0.5;;
56271;SDS011;42177;48.914;18.160;2022-08-21T07:48:55;0.7;;;0.6;;
56271;SDS011;42177;48.914;18.160;2022-08-21T07:53:56;0.7;;;0.6;;
56271;SDS011;42177;48.914;18.160;2022-08-21T07:59:00;1;;;0.9;;
56271;SDS011;42177;48.914;18.160;2022-08-21T08:03:57;1;;;0.9;;
56271;SDS011;42177;48.914;18.160;2022-08-21T08:08:57;1.7;;;0.7;;
56271;SDS011;42177;48.914;18.160;2022-08-21T08:13:59;1.7;;;0.7;;
56271;SDS011;42177;48.914;18.160;2022-08-21T08:18:56;1.9;;;0.7;;
56271;SDS011;42177;48.914;18.160;2022-08-21T08:23:55;1.9;;;0.7;;
56271;SDS011;42177;48.914;18.160;2022-08-21T08:28:55;1;;;1;;
56271;SDS011;42177;48.914;18.160;2022-08-21T08:33:55;1;;;1;;
56271;SDS011;42177;48.914;18.160;2022-08-21T08:38:55;2.8;;;1.5;;
56271;SDS011;42177;48.914;18.160;2022-08-21T08:43:57;2.8;;;1.5;;
56271;SDS011;42177;48.914;18.160;2022-08-21T08:48:57;1.6;;;1.3;;
56271;SDS011;42177;48.914;18.160;2022-08-21T08:53:56;1.6;;;1.3;;
56271;SDS011;42177;48.914;18.160;2022-08-21T08:58:56;2.5;;;1.7;;
56271;SDS011;42177;48.914;18.160;2022-08-21T09:03:55;2.5;;;1.7;;
56271;SDS011;42177;48.914;18.160;2022-08-21T09:08:58;3.2;;;2.5;;
56271;SDS011;42177;48.914;18.160;2022-08-21T09:13:57;3.2;;;2.5;;
56271;SDS011;42177;48.914;18.160;2022-08-21T09:18:58;3.6;;;2.5;;
56271;SDS011;42177;48.914;18.160;2022-08-21T09:23:57;3.6;;;2.5;;
56271;SDS011;42177;48.914;18.160;2022-08-21T09:28:56;3;;;2.7;;
56271;SDS011;42177;48.914;18.160;2022-08-21T09:33:57;3;;;2.7;;
56271;SDS011;42177;48.914;18.160;2022-08-21T09:38:55;3.5;;;3.2;;
56271;SDS011;42177;48.914;18.160;2022-08-21T09:43:55;3.5;;;3.2;;
56271;SDS011;42177;48.914;18.160;2022-08-21T09:48:56;3.5;;;3.2;;
56271;SDS011;42177;48.914;18.160;2022-08-21T09:53:56;3.5;;;3.2;;
56271;SDS011;42177;48.914;18.160;2022-08-21T09:58:55;5.8;;;4.1;;
56271;SDS011;42177;48.914;18.160;2022-08-21T10:04:01;5.8;;;4.1;;
56271;SDS011;42177;48.914;18.160;2022-08-21T10:09:03;4.6;;;4.2;;
56271;SDS011;42177;48.914;18.160;2022-08-21T10:13:56;4.6;;;4.2;;
56271;SDS011;42177;48.914;18.160;2022-08-21T10:18:59;4.4;;;3.7;;
56271;SDS011;42177;48.914;18.160;2022-08-21T10:23:59;4.4;;;3.7;;
56271;SDS011;42177;48.914;18.160;2022-08-21T10:28:57;6.4;;;4.6;;
56271;SDS011;42177;48.914;18.160;2022-08-21T10:33:59;6.4;;;4.6;;
56271;SDS011;42177;48.914;18.160;2022-08-21T10:38:58;6.8;;;4.9;;
56271;SDS011;42177;48.914;18.160;2022-08-21T10:43:58;6.8;;;4.9;;
56271;SDS011;42177;48.914;18.160;2022-08-21T10:48:57;9.7;;;4.8;;
56271;SDS011;42177;48.914;18.160;2022-08-21T10:53:58;9.7;;;4.8;;
56271;SDS011;42177;48.914;18.160;2022-08-21T10:58:59;7.2;;;5.3;;
56271;SDS011;42177;48.914;18.160;2022-08-21T11:04:01;7.2;;;5.3;;
56271;SDS011;42177;48.914;18.160;2022-08-21T11:08:57;7.4;;;5.2;;
56271;SDS011;42177;48.914;18.160;2022-08-21T11:13:56;7.4;;;5.2;;
56271;SDS011;42177;48.914;18.160;2022-08-21T11:18:57;7.1;;;5;;
56271;SDS011;42177;48.914;18.160;2022-08-21T11:23:57;7.1;;;5;;
56271;SDS011;42177;48.914;18.160;2022-08-21T11:28:58;8.3;;;4.9;;
56271;SDS011;42177;48.914;18.160;2022-08-21T11:34:00;8.3;;;4.9;;
56271;SDS011;42177;48.914;18.160;2022-08-21T11:38:57;5.8;;;4.6;;
56271;SDS011;42177;48.914;18.160;2022-08-21T11:43:59;5.8;;;4.6;;
56271;SDS011;42177;48.914;18.160;2022-08-21T11:48:59;5.4;;;4.5;;
56271;SDS011;42177;48.914;18.160;2022-08-21T11:53:57;5.4;;;4.5;;
56271;SDS011;42177;48.914;18.160;2022-08-21T11:58:56;7.8;;;4;;
56271;SDS011;42177;48.914;18.160;2022-08-21T12:03:56;7.8;;;4;;
56271;SDS011;42177;48.914;18.160;2022-08-21T12:08:57;5;;;4.2;;
56271;SDS011;42177;48.914;18.160;2022-08-21T12:13:58;5;;;4.2;;
56271;SDS011;42177;48.914;18.160;2022-08-21T12:19:02;4.2;;;3.5;;
56271;SDS011;42177;48.914;18.160;2022-08-21T12:24:03;4.2;;;3.5;;
56271;SDS011;42177;48.914;18.160;2022-08-21T12:29:04;3.4;;;3;;
56271;SDS011;42177;48.914;18.160;2022-08-21T12:33:57;3.4;;;3;;
56271;SDS011;42177;48.914;18.160;2022-08-21T12:38:56;3.7;;;3;;
56271;SDS011;42177;48.914;18.160;2022-08-21T12:43:57;3.7;;;3;;
56271;SDS011;42177;48.914;18.160;2022-08-21T12:48:56;6;;;2.7;;
56271;SDS011;42177;48.914;18.160;2022-08-21T12:53:56;6;;;2.7;;
56271;SDS011;42177;48.914;18.160;2022-08-21T12:58:56;3;;;2.1;;
56271;SDS011;42177;48.914;18.160;2022-08-21T13:03:57;3;;;2.1;;
56271;SDS011;42177;48.914;18.160;2022-08-21T13:08:56;3.5;;;2;;
56271;SDS011;42177;48.914;18.160;2022-08-21T13:13:55;3.5;;;2;;
56271;SDS011;42177;48.914;18.160;2022-08-21T13:18:56;2.7;;;1.3;;
56271;SDS011;42177;48.914;18.160;2022-08-21T13:24:17;2.7;;;1.3;;
56271;SDS011;42177;48.914;18.160;2022-08-21T13:28:55;1.6;;;0.9;;
56271;SDS011;42177;48.914;18.160;2022-08-21T13:33:55;1.6;;;0.9;;
56271;SDS011;42177;48.914;18.160;2022-08-21T13:38:55;2.5;;;1;;
56271;SDS011;42177;48.914;18.160;2022-08-21T13:43:56;2.5;;;1;;
56271;SDS011;42177;48.914;18.160;2022-08-21T13:48:55;1.3;;;0.9;;
56271;SDS011;42177;48.914;18.160;2022-08-21T13:53:55;1.3;;;0.9;;
56271;SDS011;42177;48.914;18.160;2022-08-21T13:58:56;1.5;;;1;;
56271;SDS011;42177;48.914;18.160;2022-08-21T14:03:56;1.5;;;1;;
56271;SDS011;42177;48.914;18.160;2022-08-21T14:08:56;4.5;;;1.2;;
56271;SDS011;42177;48.914;18.160;2022-08-21T14:13:56;4.5;;;1.2;;
56271;SDS011;42177;48.914;18.160;2022-08-21T14:19:07;2.4;;;1.2;;
56271;SDS011;42177;48.914;18.160;2022-08-21T14:23:59;2.4;;;1.2;;
56271;SDS011;42177;48.914;18.160;2022-08-21T14:28:57;2.9;;;1.4;;
56271;SDS011;42177;48.914;18.160;2022-08-21T14:33:55;2.9;;;1.4;;
56271;SDS011;42177;48.914;18.160;2022-08-21T14:38:55;1.7;;;1.2;;
56271;SDS011;42177;48.914;18.160;2022-08-21T14:43:56;1.7;;;1.2;;
56271;SDS011;42177;48.914;18.160;2022-08-21T14:48:55;4.4;;;1.8;;
56271;SDS011;42177;48.914;18.160;2022-08-21T14:53:55;4.4;;;1.8;;
56271;SDS011;42177;48.914;18.160;2022-08-21T14:58:55;5.1;;;1.9;;
56271;SDS011;42177;48.914;18.160;2022-08-21T15:03:55;5.1;;;1.9;;
56271;SDS011;42177;48.914;18.160;2022-08-21T15:08:55;5.6;;;1.6;;
56271;SDS011;42177;48.914;18.160;2022-08-21T15:13:56;5.6;;;1.6;;
56271;SDS011;42177;48.914;18.160;2022-08-21T15:18:55;2.4;;;1.4;;
56271;SDS011;42177;48.914;18.160;2022-08-21T15:23:55;2.4;;;1.4;;
56271;SDS011;42177;48.914;18.160;2022-08-21T15:28:55;2.6;;;1.6;;
56271;SDS011;42177;48.914;18.160;2022-08-21T15:33:55;2.6;;;1.6;;
56271;SDS011;42177;48.914;18.160;2022-08-21T15:38:55;4.8;;;1.6;;
56271;SDS011;42177;48.914;18.160;2022-08-21T15:43:55;4.8;;;1.6;;
56271;SDS011;42177;48.914;18.160;2022-08-21T15:48:55;3.5;;;1.5;;
56271;SDS011;42177;48.914;18.160;2022-08-21T15:53:55;3.5;;;1.5;;
56271;SDS011;42177;48.914;18.160;2022-08-21T15:58:57;3.2;;;2.2;;
56271;SDS011;42177;48.914;18.160;2022-08-21T16:03:55;3.2;;;2.2;;
56271;SDS011;42177;48.914;18.160;2022-08-21T16:08:55;3.9;;;2.2;;
56271;SDS011;42177;48.914;18.160;2022-08-21T16:13:55;3.9;;;2.2;;
56271;SDS011;42177;48.914;18.160;2022-08-21T16:18:55;2.8;;;1.6;;
56271;SDS011;42177;48.914;18.160;2022-08-21T16:23:55;2.8;;;1.6;;
56271;SDS011;42177;48.914;18.160;2022-08-21T16:28:56;4.4;;;1.9;;
56271;SDS011;42177;48.914;18.160;2022-08-21T16:33:55;4.4;;;1.9;;
56271;SDS011;42177;48.914;18.160;2022-08-21T16:38:56;3;;;2.2;;
56271;SDS011;42177;48.914;18.160;2022-08-21T16:43:55;3;;;2.2;;
56271;SDS011;42177;48.914;18.160;2022-08-21T16:48:55;5.3;;;2.4;;
56271;SDS011;42177;48.914;18.160;2022-08-21T16:53:55;5.3;;;2.4;;
56271;SDS011;42177;48.914;18.160;2022-08-21T16:58:56;4.7;;;2.3;;
56271;SDS011;42177;48.914;18.160;2022-08-21T17:03:55;4.7;;;2.3;;
56271;SDS011;42177;48.914;18.160;2022-08-21T17:08:56;5;;;2.3;;
56271;SDS011;42177;48.914;18.160;2022-08-21T17:13:55;5;;;2.3;;
56271;SDS011;42177;48.914;18.160;2022-08-21T17:18:55;4;;;2.2;;
56271;SDS011;42177;48.914;18.160;2022-08-21T17:23:55;4;;;2.2;;
56271;SDS011;42177;48.914;18.160;2022-08-21T17:28:56;3.2;;;2.4;;
56271;SDS011;42177;48.914;18.160;2022-08-21T17:33:56;3.2;;;2.4;;
56271;SDS011;42177;48.914;18.160;2022-08-21T17:38:56;2.4;;;1.9;;
56271;SDS011;42177;48.914;18.160;2022-08-21T17:43:55;2.4;;;1.9;;
56271;SDS011;42177;48.914;18.160;2022-08-21T17:48:56;2.7;;;2.3;;
56271;SDS011;42177;48.914;18.160;2022-08-21T17:53:55;2.7;;;2.3;;
56271;SDS011;42177;48.914;18.160;2022-08-21T17:58:55;2.9;;;2.4;;
56271;SDS011;42177;48.914;18.160;2022-08-21T18:03:55;2.9;;;2.4;;
56271;SDS011;42177;48.914;18.160;2022-08-21T18:08:55;5.3;;;2.7;;
56271;SDS011;42177;48.914;18.160;2022-08-21T18:13:56;5.3;;;2.7;;
56271;SDS011;42177;48.914;18.160;2022-08-21T18:18:56;5.5;;;3.4;;
56271;SDS011;42177;48.914;18.160;2022-08-21T18:23:55;5.5;;;3.4;;
56271;SDS011;42177;48.914;18.160;2022-08-21T18:28:56;4.4;;;2.8;;
56271;SDS011;42177;48.914;18.160;2022-08-21T18:33:55;4.4;;;2.8;;
56271;SDS011;42177;48.914;18.160;2022-08-21T18:38:55;2.5;;;1.6;;
56271;SDS011;42177;48.914;18.160;2022-08-21T18:43:55;2.5;;;1.6;;
56271;SDS011;42177;48.914;18.160;2022-08-21T18:48:56;3.8;;;1.9;;
56271;SDS011;42177;48.914;18.160;2022-08-21T18:53:56;3.8;;;1.9;;
56271;SDS011;42177;48.914;18.160;2022-08-21T18:58:55;3;;;2;;
56271;SDS011;42177;48.914;18.160;2022-08-21T19:03:56;3;;;2;;
56271;SDS011;42177;48.914;18.160;2022-08-21T19:08:55;2.9;;;2.6;;
56271;SDS011;42177;48.914;18.160;2022-08-21T19:13:55;2.9;;;2.6;;
56271;SDS011;42177;48.914;18.160;2022-08-21T19:18:55;4.2;;;2.2;;
56271;SDS011;42177;48.914;18.160;2022-08-21T19:23:55;4.2;;;2.2;;
56271;SDS011;42177;48.914;18.160;2022-08-21T19:28:56;3.3;;;2.1;;
56271;SDS011;42177;48.914;18.160;2022-08-21T19:33:57;3.3;;;2.1;;
56271;SDS011;42177;48.914;18.160;2022-08-21T19:38:55;2.6;;;2.3;;
56271;SDS011;42177;48.914;18.160;2022-08-21T19:43:56;2.6;;;2.3;;
56271;SDS011;42177;48.914;18.160;2022-08-21T19:48:56;4.8;;;2.7;;
56271;SDS011;42177;48.914;18.160;2022-08-21T19:53:56;4.8;;;2.7;;
56271;SDS011;42177;48.914;18.160;2022-08-21T19:58:55;4;;;2.7;;
56271;SDS011;42177;48.914;18.160;2022-08-21T20:03:55;4;;;2.7;;
56271;SDS011;42177;48.914;18.160;2022-08-21T20:08:55;3.3;;;2.2;;
56271;SDS011;42177;48.914;18.160;2022-08-21T20:13:55;3.3;;;2.2;;
56271;SDS011;42177;48.914;18.160;2022-08-21T20:18:56;6;;;2;;
56271;SDS011;42177;48.914;18.160;2022-08-21T20:23:55;6;;;2;;
56271;SDS011;42177;48.914;18.160;2022-08-21T20:28:56;2.5;;;2.1;;
56271;SDS011;42177;48.914;18.160;2022-08-21T20:33:55;2.5;;;2.1;;
56271;SDS011;42177;48.914;18.160;2022-08-21T20:38:55;2.8;;;2.1;;
56271;SDS011;42177;48.914;18.160;2022-08-21T20:43:56;2.8;;;2.1;;
56271;SDS011;42177;48.914;18.160;2022-08-21T20:48:55;4.8;;;2.3;;
56271;SDS011;42177;48.914;18.160;2022-08-21T20:53:57;4.8;;;2.3;;
56271;SDS011;42177;48.914;18.160;2022-08-21T20:59:03;3.9;;;2.1;;
56271;SDS011;42177;48.914;18.160;2022-08-21T21:03:57;3.9;;;2.1;;
56271;SDS011;42177;48.914;18.160;2022-08-21T21:08:57;2.9;;;2.6;;
56271;SDS011;42177;48.914;18.160;2022-08-21T21:13:57;2.9;;;2.6;;
56271;SDS011;42177;48.914;18.160;2022-08-21T21:18:57;4.2;;;3.1;;
56271;SDS011;42177;48.914;18.160;2022-08-21T21:23:58;4.2;;;3.1;;
56271;SDS011;42177;48.914;18.160;2022-08-21T21:28:57;4.9;;;3;;
56271;SDS011;42177;48.914;18.160;2022-08-21T21:33:55;4.9;;;3;;
56271;SDS011;42177;48.914;18.160;2022-08-21T21:38:59;3.1;;;2.7;;
56271;SDS011;42177;48.914;18.160;2022-08-21T21:44:07;3.1;;;2.7;;
56271;SDS011;42177;48.914;18.160;2022-08-21T21:48:59;3.8;;;2.9;;
56271;SDS011;42177;48.914;18.160;2022-08-21T21:54:01;3.8;;;2.9;;
56271;SDS011;42177;48.914;18.160;2022-08-21T21:58:59;4.6;;;2.8;;
56271;SDS011;42177;48.914;18.160;2022-08-21T22:03:57;4.6;;;2.8;;
56271;SDS011;42177;48.914;18.160;2022-08-21T22:08:57;6.6;;;3;;
56271;SDS011;42177;48.914;18.160;2022-08-21T22:13:59;6.6;;;3;;
56271;SDS011;42177;48.914;18.160;2022-08-21T22:18:57;5.2;;;3.2;;
56271;SDS011;42177;48.914;18.160;2022-08-21T22:23:56;5.2;;;3.2;;
56271;SDS011;42177;48.914;18.160;2022-08-21T22:28:55;5.8;;;3.1;;
56271;SDS011;42177;48.914;18.160;2022-08-21T22:33:59;5.8;;;3.1;;
56271;SDS011;42177;48.914;18.160;2022-08-21T22:38:55;6.4;;;3.1;;
56271;SDS011;42177;48.914;18.160;2022-08-21T22:43:56;6.4;;;3.1;;
56271;SDS011;42177;48.914;18.160;2022-08-21T22:48:58;4.3;;;2.7;;
56271;SDS011;42177;48.914;18.160;2022-08-21T22:53:56;4.3;;;2.7;;
56271;SDS011;42177;48.914;18.160;2022-08-21T22:58:56;5;;;2.8;;
56271;SDS011;42177;48.914;18.160;2022-08-21T23:03:56;5;;;2.8;;
56271;SDS011;42177;48.914;18.160;2022-08-21T23:08:56;5.2;;;3.3;;
56271;SDS011;42177;48.914;18.160;2022-08-21T23:13:56;5.2;;;3.3;;
56271;SDS011;42177;48.914;18.160;2022-08-21T23:18:57;5.4;;;3;;
56271;SDS011;42177;48.914;18.160;2022-08-21T23:23:59;5.4;;;3;;
56271;SDS011;42177;48.914;18.160;2022-08-21T23:28:59;4.3;;;2.8;;
56271;SDS011;42177;48.914;18.160;2022-08-21T23:33:58;4.3;;;2.8;;
56271;SDS011;42177;48.914;18.160;2022-08-21T23:39:02;4.7;;;2.9;;
56271;SDS011;42177;48.914;18.160;2022-08-21T23:43:58;4.7;;;2.9;;
56271;SDS011;42177;48.914;18.160;2022-08-21T23:48:57;4.4;;;3.2;;
56271;SDS011;42177;48.914;18.160;2022-08-21T23:53:57;4.4;;;3.2;;
56271;SDS011;42177;48.914;18.160;2022-08-21T23:58:57;4.2;;;3.1;;
